Time;durP1;ratioP1;P1;durP2;ratioP2;P2;SDS_P1;SDS_P2;PMS_P1;PMS_P2;Temp;Humidity;BMP_temperature;BMP_pressure;BME280_temperature;BME280_humidity;BME280_pressure;Samples;Min_cycle;Max_cycle;Signal;HPM_P1;HPM_P2
2023/03/26 00:01:20;;;;;;;10.27;4.37;;;8.40;99.90;;;;;;5033409;28;20534;-71
2023/03/26 00:03:52;;;;;;;11.17;4.03;;;8.30;99.90;;;;;;5033555;28;20477;-71
2023/03/26 00:06:24;;;;;;;8.80;3.90;;;8.40;99.90;;;;;;5033817;28;20433;-71
2023/03/26 00:08:53;;;;;;;12.40;3.80;;;8.40;99.90;;;;;;5033184;28;20551;-71
2023/03/26 00:11:22;;;;;;;11.03;4.03;;;8.30;99.90;;;;;;5018266;28;20458;-72
2023/03/26 00:13:52;;;;;;;8.60;3.83;;;8.40;99.90;;;;;;5036170;28;20470;-71
2023/03/26 00:16:21;;;;;;;12.13;4.00;;;8.30;99.90;;;;;;5016623;28;20431;-71
2023/03/26 00:18:50;;;;;;;11.93;3.93;;;8.30;99.90;;;;;;5036208;28;20509;-72
2023/03/26 00:21:26;;;;;;;15.53;4.90;;;8.30;99.90;;;;;;5041264;28;20516;-72
2023/03/26 00:23:59;;;;;;;15.13;4.30;;;8.30;99.90;;;;;;5038148;28;20453;-72
2023/03/26 00:26:34;;;;;;;10.87;3.90;;;8.30;99.90;;;;;;5035090;28;20412;-73
2023/03/26 00:29:02;;;;;;;11.73;4.10;;;8.30;99.90;;;;;;5034760;28;20857;-72
2023/03/26 00:31:32;;;;;;;8.33;3.80;;;8.30;99.90;;;;;;5016016;28;20465;-72
2023/03/26 00:34:02;;;;;;;8.97;4.40;;;8.30;99.90;;;;;;5033568;28;20438;-73
2023/03/26 00:36:34;;;;;;;9.43;3.70;;;8.30;99.90;;;;;;5015454;28;20439;-72
2023/03/26 00:39:04;;;;;;;9.97;3.30;;;8.20;99.90;;;;;;5033141;28;20421;-72
2023/03/26 00:41:35;;;;;;;5.33;2.80;;;8.20;99.90;;;;;;5033380;28;20463;-72
2023/03/26 00:44:04;;;;;;;10.10;3.53;;;8.20;99.90;;;;;;5015418;28;20447;-72
2023/03/26 00:46:32;;;;;;;12.60;2.83;;;8.20;99.90;;;;;;5032966;28;20431;-72
2023/03/26 00:49:02;;;;;;;10.00;2.93;;;8.20;99.90;;;;;;5032903;28;20520;-72
2023/03/26 00:51:33;;;;;;;8.97;2.97;;;8.20;99.90;;;;;;5032851;28;20600;-72
2023/03/26 00:54:01;;;;;;;7.90;3.27;;;8.10;99.90;;;;;;5033165;28;20770;-72
2023/03/26 00:56:30;;;;;;;9.57;3.27;;;8.10;99.90;;;;;;5033109;28;20446;-72
2023/03/26 00:58:59;;;;;;;8.47;3.17;;;8.00;99.90;;;;;;5015068;28;20509;-72
2023/03/26 01:01:29;;;;;;;8.23;2.70;;;8.00;99.90;;;;;;5015026;28;20830;-72
2023/03/26 01:04:17;;;;;;;6.93;2.40;;;8.00;99.90;;;;;;5033098;28;20433;-71
2023/03/26 01:06:47;;;;;;;6.40;2.70;;;8.00;99.90;;;;;;5033310;28;20875;-72
2023/03/26 01:09:18;;;;;;;8.77;3.20;;;8.00;99.90;;;;;;5015810;28;20489;-71
2023/03/26 01:11:48;;;;;;;9.10;3.20;;;7.90;99.90;;;;;;5036223;28;20561;-72
2023/03/26 01:14:20;;;;;;;9.83;2.90;;;7.90;99.90;;;;;;5036425;28;20950;-71
2023/03/26 01:16:51;;;;;;;6.17;2.80;;;7.90;99.90;;;;;;5018435;28;20446;-71
2023/03/26 01:19:25;;;;;;;8.43;3.43;;;7.80;99.90;;;;;;5036555;28;20423;-71
2023/03/26 01:21:55;;;;;;;6.50;3.60;;;7.80;99.90;;;;;;5036057;28;20461;-71
2023/03/26 01:24:25;;;;;;;8.93;3.63;;;7.80;99.90;;;;;;5036526;28;20453;-71
2023/03/26 01:27:13;;;;;;;7.73;3.33;;;7.90;99.90;;;;;;5018233;28;20446;-71
2023/03/26 01:29:45;;;;;;;9.80;3.80;;;7.90;99.90;;;;;;5018076;28;20828;-71
2023/03/26 01:32:39;;;;;;;9.67;4.83;;;7.80;99.90;;;;;;5036147;28;20462;-72
2023/03/26 01:35:21;;;;;;;11.13;4.97;;;7.80;99.90;;;;;;5035833;28;20534;-72
2023/03/26 01:38:01;;;;;;;9.37;4.70;;;7.90;99.90;;;;;;5018014;28;20462;-71
2023/03/26 01:40:37;;;;;;;11.30;4.50;;;7.90;99.90;;;;;;5035694;28;20454;-71
2023/03/26 01:43:12;;;;;;;12.67;5.17;;;7.90;99.90;;;;;;5018166;28;20458;-71
2023/03/26 01:45:44;;;;;;;10.93;5.50;;;7.90;99.90;;;;;;5035917;28;20754;-71
2023/03/26 01:48:13;;;;;;;11.00;4.60;;;7.90;99.90;;;;;;5035744;28;20426;-71
2023/03/26 01:50:42;;;;;;;14.77;5.47;;;7.90;99.90;;;;;;5035863;28;20485;-71
2023/03/26 01:53:13;;;;;;;12.23;5.77;;;7.90;99.90;;;;;;5017757;28;20454;-71
2023/03/26 01:55:52;;;;;;;16.00;5.07;;;7.90;99.90;;;;;;5035703;28;20422;-71
2023/03/26 01:58:29;;;;;;;8.93;4.40;;;8.00;99.90;;;;;;5035630;28;20435;-72
2023/03/26 02:01:06;;;;;;;11.17;5.10;;;8.00;99.90;;;;;;5017540;28;20853;-72
2023/03/26 02:03:39;;;;;;;10.20;3.90;;;8.00;99.90;;;;;;5035582;28;20449;-71
2023/03/26 02:06:16;;;;;;;9.63;3.80;;;8.00;99.90;;;;;;5035622;28;20478;-72
2023/03/26 02:08:51;;;;;;;15.57;4.53;;;8.00;99.90;;;;;;5017438;28;20520;-72
2023/03/26 02:11:21;;;;;;;11.23;4.80;;;8.00;99.90;;;;;;5018189;28;20475;-72
2023/03/26 02:13:51;;;;;;;11.00;5.00;;;8.00;99.90;;;;;;5035357;28;20429;-72
2023/03/26 02:16:20;;;;;;;11.70;4.23;;;8.00;99.90;;;;;;5035072;28;20948;-72
2023/03/26 02:18:54;;;;;;;10.00;4.10;;;8.00;99.90;;;;;;5034982;28;20438;-72
2023/03/26 02:21:24;;;;;;;12.07;4.70;;;8.00;99.90;;;;;;5016068;28;20471;-72
2023/03/26 02:23:56;;;;;;;9.63;4.37;;;8.00;99.90;;;;;;5017189;28;20936;-72
2023/03/26 02:26:26;;;;;;;8.63;3.53;;;8.00;99.90;;;;;;5017160;28;20926;-72
2023/03/26 02:29:05;;;;;;;11.27;4.13;;;8.00;99.90;;;;;;5017028;28;20552;-72
2023/03/26 02:31:36;;;;;;;11.60;4.17;;;8.00;99.90;;;;;;5017773;28;20858;-72
2023/03/26 02:34:04;;;;;;;12.73;4.50;;;8.00;99.90;;;;;;5016816;28;20497;-72
2023/03/26 02:36:36;;;;;;;10.00;4.47;;;8.00;99.90;;;;;;5017144;28;20805;-72
2023/03/26 02:39:05;;;;;;;12.07;4.67;;;8.00;99.90;;;;;;5016886;28;20504;-72
2023/03/26 02:41:39;;;;;;;9.50;4.10;;;8.00;99.90;;;;;;5016960;28;20476;-72
2023/03/26 02:44:10;;;;;;;11.10;4.07;;;8.00;99.90;;;;;;5016783;28;21001;-72
2023/03/26 02:47:04;;;;;;;11.30;4.23;;;8.00;99.90;;;;;;5033812;28;20962;-72
2023/03/26 02:49:50;;;;;;;9.37;3.97;;;8.00;99.90;;;;;;5034867;28;20457;-72
2023/03/26 02:52:27;;;;;;;10.13;4.27;;;8.00;99.90;;;;;;5016787;28;20455;-72
2023/03/26 02:54:58;;;;;;;10.90;4.53;;;8.00;99.90;;;;;;5016845;28;20510;-72
2023/03/26 02:57:28;;;;;;;11.00;4.70;;;8.00;99.90;;;;;;5016591;28;20816;-71
2023/03/26 02:59:56;;;;;;;13.27;4.10;;;7.90;99.90;;;;;;5034377;28;20788;-72
2023/03/26 03:02:37;;;;;;;10.90;4.50;;;7.90;99.90;;;;;;5034769;28;20415;-72
2023/03/26 03:05:25;;;;;;;14.27;4.80;;;7.90;99.90;;;;;;5034731;28;20481;-72
2023/03/26 03:08:12;;;;;;;11.77;4.67;;;7.90;99.90;;;;;;5016661;28;20551;-72
2023/03/26 03:10:56;;;;;;;12.63;4.03;;;7.90;99.90;;;;;;5016262;28;20490;-72
2023/03/26 03:13:38;;;;;;;9.13;4.00;;;7.90;99.90;;;;;;5016196;28;20442;-72
2023/03/26 03:16:07;;;;;;;10.50;4.10;;;7.90;99.90;;;;;;5016674;28;20962;-72
2023/03/26 03:18:36;;;;;;;10.37;3.53;;;7.90;99.90;;;;;;5016186;28;20444;-72
2023/03/26 03:21:06;;;;;;;11.97;4.63;;;7.90;99.90;;;;;;5015965;28;20466;-72
2023/03/26 03:23:34;;;;;;;11.87;4.03;;;7.90;99.90;;;;;;5034355;28;20439;-72
2023/03/26 03:26:14;;;;;;;10.97;3.80;;;7.90;99.90;;;;;;5016076;28;20454;-72
2023/03/26 03:28:47;;;;;;;10.93;3.73;;;7.90;99.90;;;;;;5016059;28;20449;-71
2023/03/26 03:31:16;;;;;;;14.10;4.13;;;7.90;99.90;;;;;;5033801;28;20492;-72
2023/03/26 03:33:45;;;;;;;10.00;3.40;;;7.90;99.90;;;;;;5015573;28;20500;-72
2023/03/26 03:36:17;;;;;;;9.30;3.67;;;7.90;99.90;;;;;;5016175;28;20827;-72
2023/03/26 03:38:50;;;;;;;9.87;3.53;;;7.80;99.90;;;;;;5016176;28;20450;-72
2023/03/26 03:41:21;;;;;;;16.07;4.47;;;7.80;99.90;;;;;;5020014;28;21017;-72
2023/03/26 03:43:50;;;;;;;8.67;3.13;;;7.80;99.90;;;;;;5017999;28;20446;-72
2023/03/26 03:46:25;;;;;;;11.27;4.03;;;7.80;99.90;;;;;;5017247;28;20518;-72
2023/03/26 03:48:53;;;;;;;11.20;3.10;;;7.80;99.90;;;;;;5016419;28;20461;-71
2023/03/26 03:51:26;;;;;;;9.27;3.10;;;7.80;99.90;;;;;;5015799;28;21033;-72
2023/03/26 03:54:03;;;;;;;9.23;3.10;;;7.80;99.90;;;;;;5015738;28;20460;-72
2023/03/26 03:56:54;;;;;;;8.53;2.80;;;7.80;99.90;;;;;;5022637;28;20441;-72
2023/03/26 03:59:37;;;;;;;9.93;3.13;;;7.80;99.90;;;;;;5015990;28;20973;-71
2023/03/26 04:02:19;;;;;;;8.83;3.43;;;7.80;99.90;;;;;;5015697;28;20474;-72
2023/03/26 04:04:56;;;;;;;8.27;2.97;;;7.70;99.90;;;;;;5015694;28;20825;-72
2023/03/26 04:07:25;;;;;;;9.10;3.63;;;7.70;99.90;;;;;;5015623;28;20452;-72
2023/03/26 04:10:15;;;;;;;9.47;3.40;;;7.70;99.90;;;;;;5019103;28;20499;-72
2023/03/26 04:13:06;;;;;;;7.03;2.80;;;7.70;99.90;;;;;;4996292;28;20450;-72
2023/03/26 04:15:55;;;;;;;9.93;3.47;;;7.60;99.90;;;;;;5033774;28;20430;-72
2023/03/26 04:18:25;;;;;;;9.17;3.30;;;7.70;99.90;;;;;;5015527;28;20457;-72
2023/03/26 04:20:54;;;;;;;15.03;4.23;;;7.60;99.90;;;;;;5015611;28;20637;-72
2023/03/26 04:23:27;;;;;;;7.77;2.87;;;7.60;99.90;;;;;;5015559;28;20449;-72
2023/03/26 04:26:15;;;;;;;15.93;3.50;;;7.60;99.90;;;;;;5015696;28;20442;-72
2023/03/26 04:29:05;;;;;;;10.77;3.57;;;7.60;99.90;;;;;;5015550;28;20442;-72
2023/03/26 04:31:37;;;;;;;13.00;3.53;;;7.60;99.90;;;;;;5015387;28;21034;-72
2023/03/26 04:34:12;;;;;;;11.20;3.87;;;7.60;99.90;;;;;;5015209;28;20463;-72
2023/03/26 04:36:53;;;;;;;9.17;3.80;;;7.50;99.90;;;;;;5015245;28;20447;-72
2023/03/26 04:39:27;;;;;;;13.70;3.77;;;7.50;99.90;;;;;;5015358;28;20543;-72
2023/03/26 04:42:21;;;;;;;11.83;4.00;;;7.50;99.90;;;;;;5028942;28;20448;-72
2023/03/26 04:45:05;;;;;;;13.33;3.50;;;7.50;99.90;;;;;;5018241;28;20490;-72
2023/03/26 04:47:35;;;;;;;9.07;3.47;;;7.50;99.90;;;;;;5019007;28;20502;-72
2023/03/26 04:50:05;;;;;;;14.60;4.20;;;7.40;99.90;;;;;;5019092;28;20453;-72
2023/03/26 04:52:35;;;;;;;9.83;3.13;;;7.40;99.90;;;;;;5036948;28;20456;-72
2023/03/26 04:55:27;;;;;;;12.20;3.70;;;7.40;99.90;;;;;;5035986;28;20452;-72
2023/03/26 04:58:05;;;;;;;11.67;3.60;;;7.40;99.90;;;;;;5019144;28;20444;-72
2023/03/26 05:01:06;;;;;;;12.20;3.50;;;7.30;99.90;;;;;;5027037;28;20463;-72
2023/03/26 05:03:44;;;;;;;10.97;3.13;;;7.30;99.90;;;;;;5018986;28;20442;-72
2023/03/26 05:06:14;;;;;;;9.63;3.10;;;7.30;99.90;;;;;;5019255;28;20956;-72
2023/03/26 05:08:42;;;;;;;11.67;3.60;;;7.30;99.90;;;;;;5018871;28;20454;-72
2023/03/26 05:11:18;;;;;;;13.37;3.43;;;7.30;99.90;;;;;;5018585;28;20519;-72
2023/03/26 05:13:46;;;;;;;11.67;4.27;;;7.20;99.90;;;;;;5018855;28;20552;-72
2023/03/26 05:16:14;;;;;;;7.17;2.73;;;7.30;99.90;;;;;;5018440;28;20511;-72
2023/03/26 05:18:52;;;;;;;7.87;3.00;;;7.20;99.90;;;;;;5018424;28;20450;-72
2023/03/26 05:21:22;;;;;;;14.23;3.93;;;7.20;99.90;;;;;;5018304;28;20461;-72
2023/03/26 05:23:50;;;;;;;12.30;3.13;;;7.20;99.90;;;;;;5018314;28;20809;-72
2023/03/26 05:26:20;;;;;;;9.90;3.40;;;7.20;99.90;;;;;;5018750;28;20448;-72
2023/03/26 05:28:50;;;;;;;10.60;2.83;;;7.20;99.90;;;;;;5018167;28;20535;-72
2023/03/26 05:31:35;;;;;;;10.33;3.47;;;7.20;99.90;;;;;;5018909;28;20507;-72
2023/03/26 05:34:05;;;;;;;12.40;3.70;;;7.20;99.90;;;;;;5017993;28;20505;-72
2023/03/26 05:36:33;;;;;;;9.23;3.70;;;7.20;99.90;;;;;;5018362;28;20451;-72
2023/03/26 05:39:25;;;;;;;11.40;3.13;;;7.20;99.90;;;;;;5007557;28;20449;-72
2023/03/26 05:42:17;;;;;;;10.50;3.43;;;7.20;99.90;;;;;;5035393;28;20470;-72
2023/03/26 05:45:02;;;;;;;12.80;3.80;;;7.20;99.90;;;;;;5018521;28;20484;-72
2023/03/26 05:47:33;;;;;;;13.60;3.70;;;7.20;99.90;;;;;;5018847;28;20486;-73
2023/03/26 05:50:03;;;;;;;10.93;3.43;;;7.20;99.90;;;;;;5017795;28;20555;-70
2023/03/26 05:52:33;;;;;;;8.83;3.50;;;7.20;99.90;;;;;;5017985;28;20966;-70
2023/03/26 05:55:20;;;;;;;17.87;4.17;;;7.20;99.90;;;;;;5035559;28;20433;-70
2023/03/26 05:58:07;;;;;;;9.90;4.00;;;7.30;99.90;;;;;;5036005;28;20440;-70
2023/03/26 06:01:09;;;;;;;14.43;4.10;;;7.20;99.90;;;;;;5035119;28;20463;-70
2023/03/26 06:04:03;;;;;;;12.13;4.17;;;7.20;99.90;;;;;;5004883;28;20442;-71
2023/03/26 06:06:38;;;;;;;10.70;3.90;;;7.20;99.90;;;;;;5017854;28;20798;-71
2023/03/26 06:09:07;;;;;;;12.90;3.87;;;7.20;99.90;;;;;;5035199;28;20453;-70
2023/03/26 06:11:35;;;;;;;11.87;3.80;;;7.20;99.90;;;;;;5017212;28;20482;-70
2023/03/26 06:14:04;;;;;;;13.10;3.73;;;7.20;99.90;;;;;;5017783;28;20457;-71
2023/03/26 06:16:33;;;;;;;9.37;3.47;;;7.30;99.90;;;;;;5017238;28;20473;-71
2023/03/26 06:19:21;;;;;;;15.20;4.30;;;7.30;99.90;;;;;;5017316;28;20536;-70
2023/03/26 06:22:07;;;;;;;11.73;4.00;;;7.30;99.90;;;;;;5017149;28;20486;-71
2023/03/26 06:24:53;;;;;;;12.30;3.77;;;7.20;99.90;;;;;;5017892;28;20536;-72
2023/03/26 06:27:41;;;;;;;10.70;3.50;;;7.20;99.90;;;;;;5034468;28;20460;-70
2023/03/26 06:30:25;;;;;;;14.87;3.70;;;7.30;99.90;;;;;;5017595;28;20584;-70
2023/03/26 06:33:08;;;;;;;14.83;3.80;;;7.30;99.90;;;;;;5017207;28;20471;-70
2023/03/26 06:35:44;;;;;;;12.93;4.20;;;7.30;99.90;;;;;;5017161;28;20459;-70
2023/03/26 06:38:15;;;;;;;12.80;4.70;;;7.30;99.90;;;;;;5017239;28;20442;-70
2023/03/26 06:40:43;;;;;;;10.97;4.03;;;7.30;99.90;;;;;;5016791;28;20550;-70
2023/03/26 06:43:17;;;;;;;10.30;4.00;;;7.30;99.90;;;;;;5035529;28;20953;-70
2023/03/26 06:45:56;;;;;;;14.83;4.40;;;7.30;99.90;;;;;;5017072;28;20450;-70
2023/03/26 06:48:43;;;;;;;12.13;4.07;;;7.30;99.90;;;;;;5034794;28;20428;-70
2023/03/26 06:51:17;;;;;;;12.53;4.20;;;7.30;99.90;;;;;;5034666;28;20474;-70
2023/03/26 06:54:05;;;;;;;13.73;4.27;;;7.40;99.90;;;;;;5035434;28;20434;-70
2023/03/26 06:56:54;;;;;;;14.07;3.77;;;7.30;99.90;;;;;;5016622;28;20451;-70
2023/03/26 06:59:40;;;;;;;17.87;4.33;;;7.30;99.90;;;;;;5034576;28;20453;-71
2023/03/26 07:02:27;;;;;;;17.33;4.27;;;7.40;99.90;;;;;;5034785;28;20923;-70
2023/03/26 07:05:14;;;;;;;12.33;3.97;;;7.30;99.90;;;;;;5034673;28;20584;-70
2023/03/26 07:08:11;;;;;;;11.63;4.33;;;7.30;99.90;;;;;;5024574;28;20489;-70
2023/03/26 07:10:59;;;;;;;12.87;4.10;;;7.30;99.90;;;;;;5034235;28;20830;-70
2023/03/26 07:13:55;;;;;;;15.23;4.70;;;7.30;99.90;;;;;;5017100;28;20452;-70
2023/03/26 07:16:42;;;;;;;17.80;5.00;;;7.30;99.90;;;;;;5039307;28;20429;-70
2023/03/26 07:19:33;;;;;;;16.07;4.57;;;7.30;99.90;;;;;;5029130;28;20478;-71
2023/03/26 07:22:01;;;;;;;19.27;4.80;;;7.30;99.90;;;;;;5016631;28;20470;-72
2023/03/26 07:24:49;;;;;;;11.50;3.90;;;7.30;99.90;;;;;;5034809;28;20489;-70
2023/03/26 07:28:02;;;;;;;18.37;4.90;;;7.30;99.90;;;;;;5020980;28;20446;-70
2023/03/26 07:30:59;;;;;;;18.97;4.97;;;7.30;99.90;;;;;;5016092;28;20488;-70
2023/03/26 07:33:43;;;;;;;21.23;4.70;;;7.30;99.90;;;;;;5016261;28;20481;-72
2023/03/26 07:36:47;;;;;;;17.47;4.70;;;7.40;99.90;;;;;;5006317;28;20449;-71
2023/03/26 07:39:42;;;;;;;15.13;4.13;;;7.30;99.90;;;;;;5015900;28;20792;-71
2023/03/26 07:42:43;;;;;;;13.03;3.70;;;7.30;99.90;;;;;;4993370;28;20484;-71
2023/03/26 07:45:38;;;;;;;13.63;3.87;;;7.30;99.90;;;;;;5034201;28;20824;-71
2023/03/26 07:48:39;;;;;;;10.93;3.70;;;7.30;99.90;;;;;;5025532;28;20607;-71
2023/03/26 07:51:13;;;;;;;10.50;3.63;;;7.30;99.90;;;;;;5015737;28;20467;-71
2023/03/26 07:54:04;;;;;;;15.23;4.00;;;7.30;99.90;;;;;;5016732;28;20439;-71
2023/03/26 07:56:48;;;;;;;14.10;3.97;;;7.30;99.90;;;;;;5015626;28;20446;-72
2023/03/26 07:59:40;;;;;;;13.73;3.77;;;7.30;99.90;;;;;;5033377;28;20449;-72
2023/03/26 08:02:38;;;;;;;14.87;3.90;;;7.30;99.90;;;;;;5015687;28;20452;-72
2023/03/26 08:05:28;;;;;;;11.23;3.63;;;7.30;99.90;;;;;;5015546;28;20446;-71
2023/03/26 08:08:28;;;;;;;9.60;3.63;;;7.30;99.90;;;;;;5015889;28;20486;-71
2023/03/26 08:11:34;;;;;;;11.40;3.70;;;7.30;99.90;;;;;;5015764;28;20478;-71
2023/03/26 08:14:21;;;;;;;13.10;4.37;;;7.30;99.90;;;;;;5015520;28;20452;-72
2023/03/26 08:16:54;;;;;;;11.27;4.43;;;7.40;99.90;;;;;;5033179;28;20416;-72
2023/03/26 08:19:39;;;;;;;11.10;3.80;;;7.40;99.90;;;;;;5034597;28;20431;-71
2023/03/26 08:22:14;;;;;;;18.97;4.30;;;7.40;99.90;;;;;;5037365;28;20454;-72
2023/03/26 08:25:01;;;;;;;13.60;4.00;;;7.40;99.90;;;;;;5037562;28;20452;-72
2023/03/26 08:27:37;;;;;;;9.70;3.43;;;7.60;99.90;;;;;;5040512;28;20517;-72
2023/03/26 08:30:10;;;;;;;21.70;4.60;;;7.40;99.90;;;;;;5040890;28;20425;-72
2023/03/26 08:32:39;;;;;;;11.23;3.90;;;7.50;99.90;;;;;;5020286;28;20553;-72
2023/03/26 08:35:12;;;;;;;10.10;3.80;;;7.50;99.90;;;;;;5038526;28;20514;-72
2023/03/26 08:37:40;;;;;;;16.03;4.40;;;7.60;99.90;;;;;;5038582;28;20911;-72
2023/03/26 08:40:10;;;;;;;13.83;4.93;;;7.60;99.90;;;;;;5020098;28;20496;-72
2023/03/26 08:43:09;;;;;;;12.50;4.00;;;7.60;99.90;;;;;;5020071;28;21013;-71
2023/03/26 08:46:17;;;;;;;10.50;4.00;;;7.70;99.90;;;;;;5019823;28;20439;-72
2023/03/26 08:49:02;;;;;;;10.23;3.57;;;7.70;99.90;;;;;;5022456;28;20508;-71
2023/03/26 08:52:02;;;;;;;14.67;3.83;;;7.70;99.90;;;;;;5020044;28;20477;-72
2023/03/26 08:55:10;;;;;;;13.07;3.67;;;7.70;99.90;;;;;;5036900;28;20438;-71
2023/03/26 08:58:22;;;;;;;14.87;5.33;;;7.70;99.90;;;;;;4995712;28;20446;-71
2023/03/26 09:01:25;;;;;;;14.17;4.43;;;7.70;99.90;;;;;;5036672;28;20557;-71
2023/03/26 09:04:14;;;;;;;13.77;4.20;;;7.70;99.90;;;;;;5017190;28;20510;-71
2023/03/26 09:07:18;;;;;;;16.30;4.27;;;7.70;99.90;;;;;;5036781;28;20941;-71
2023/03/26 09:10:22;;;;;;;14.97;4.27;;;7.80;99.90;;;;;;5018544;28;20450;-71
2023/03/26 09:13:16;;;;;;;12.53;3.90;;;7.70;99.90;;;;;;5036641;28;20825;-71
2023/03/26 09:16:13;;;;;;;11.23;3.87;;;7.70;99.90;;;;;;5036600;28;20423;-72
2023/03/26 09:19:15;;;;;;;16.67;3.70;;;7.70;99.90;;;;;;5018543;28;20472;-72
2023/03/26 09:22:09;;;;;;;12.30;3.87;;;7.80;99.90;;;;;;5036207;28;20457;-71
2023/03/26 09:25:07;;;;;;;13.63;4.43;;;7.80;99.90;;;;;;5036741;28;20426;-71
2023/03/26 09:27:39;;;;;;;12.13;3.90;;;7.80;99.90;;;;;;5018482;28;20443;-71
2023/03/26 09:30:33;;;;;;;13.20;4.20;;;7.80;99.90;;;;;;5017533;28;20438;-72
2023/03/26 09:33:30;;;;;;;11.87;3.77;;;7.90;99.90;;;;;;5035911;28;20472;-71
2023/03/26 09:36:20;;;;;;;11.47;4.57;;;7.90;99.90;;;;;;5035728;28;20827;-72
2023/03/26 09:38:56;;;;;;;14.03;3.50;;;7.90;99.90;;;;;;5036154;28;20911;-72
2023/03/26 09:41:36;;;;;;;11.23;4.50;;;7.90;99.90;;;;;;5017979;28;20470;-72
2023/03/26 09:44:37;;;;;;;14.87;3.57;;;7.90;99.90;;;;;;5018081;28;20435;-72
2023/03/26 09:47:38;;;;;;;11.17;3.47;;;7.90;99.90;;;;;;5009591;28;20447;-72
2023/03/26 09:50:25;;;;;;;11.00;3.80;;;8.00;99.90;;;;;;4994455;28;20446;-73
2023/03/26 09:53:06;;;;;;;10.40;3.23;;;8.00;99.90;;;;;;5035792;28;20546;-72
2023/03/26 09:55:59;;;;;;;13.97;3.97;;;8.00;99.90;;;;;;5035777;28;20828;-72
2023/03/26 09:58:46;;;;;;;11.57;3.83;;;8.10;99.90;;;;;;5035488;28;20438;-72
2023/03/26 10:01:22;;;;;;;14.40;4.07;;;8.10;99.90;;;;;;5035502;28;20451;-72
2023/03/26 10:04:01;;;;;;;9.73;3.00;;;8.10;99.90;;;;;;5035642;28;20422;-72
2023/03/26 10:06:53;;;;;;;10.67;3.87;;;8.20;99.90;;;;;;5035257;28;20458;-72
2023/03/26 10:09:40;;;;;;;11.87;3.67;;;8.20;99.90;;;;;;5032850;28;20825;-72
2023/03/26 10:12:24;;;;;;;14.87;4.17;;;8.20;99.90;;;;;;5035133;28;20469;-72
2023/03/26 10:15:09;;;;;;;12.30;3.70;;;8.30;99.90;;;;;;5017317;28;20470;-72
2023/03/26 10:17:46;;;;;;;13.77;5.13;;;8.30;99.90;;;;;;5035155;28;20430;-72
2023/03/26 10:20:43;;;;;;;10.57;3.73;;;8.40;99.90;;;;;;5017146;28;20465;-72
2023/03/26 10:23:37;;;;;;;13.17;3.83;;;8.40;99.90;;;;;;5034440;28;20874;-72
2023/03/26 10:26:21;;;;;;;10.93;3.50;;;8.40;99.90;;;;;;5034904;28;20450;-72
2023/03/26 10:29:03;;;;;;;11.97;4.37;;;8.40;99.90;;;;;;5034893;28;20430;-72
2023/03/26 10:31:47;;;;;;;16.60;4.07;;;8.40;99.90;;;;;;5016985;28;20481;-72
2023/03/26 10:34:30;;;;;;;11.70;4.30;;;8.40;99.90;;;;;;5016809;28;20463;-72
2023/03/26 10:37:08;;;;;;;8.63;3.50;;;8.50;99.90;;;;;;5034673;28;20442;-72
2023/03/26 10:40:05;;;;;;;12.10;3.33;;;8.50;99.90;;;;;;5034730;28;20451;-72
2023/03/26 10:42:58;;;;;;;16.50;3.80;;;8.60;99.90;;;;;;5012803;28;20438;-72
2023/03/26 10:45:36;;;;;;;15.67;4.60;;;8.60;99.90;;;;;;5038286;28;20454;-72
2023/03/26 10:48:42;;;;;;;16.40;5.40;;;8.60;99.90;;;;;;5035748;28;20421;-72
2023/03/26 10:51:26;;;;;;;16.30;5.07;;;8.70;99.90;;;;;;5007971;28;20994;-72
2023/03/26 10:54:00;;;;;;;11.87;4.27;;;8.70;99.90;;;;;;5034744;28;20504;-72
2023/03/26 10:56:34;;;;;;;12.80;3.73;;;8.80;99.90;;;;;;5016737;28;20449;-72
2023/03/26 10:59:07;;;;;;;15.00;4.30;;;8.80;99.90;;;;;;5034562;28;20462;-72
2023/03/26 11:01:42;;;;;;;12.60;4.37;;;8.80;99.90;;;;;;5034222;28;21049;-72
2023/03/26 11:04:23;;;;;;;15.03;4.60;;;8.80;99.90;;;;;;5034174;28;20509;-72
2023/03/26 11:07:00;;;;;;;13.30;4.03;;;8.90;99.90;;;;;;5034443;28;20434;-72
2023/03/26 11:09:37;;;;;;;14.07;4.27;;;8.90;99.90;;;;;;5016536;28;20472;-71
2023/03/26 11:12:14;;;;;;;13.63;4.03;;;8.90;99.90;;;;;;5034389;28;20469;-72
2023/03/26 11:15:03;;;;;;;13.60;5.33;;;9.00;99.90;;;;;;5034273;28;20462;-72
2023/03/26 11:17:45;;;;;;;11.20;3.97;;;9.00;99.90;;;;;;5016330;28;20565;-72
2023/03/26 11:20:18;;;;;;;16.53;5.90;;;9.00;99.90;;;;;;5034087;28;20423;-72
2023/03/26 11:23:01;;;;;;;10.77;4.43;;;9.10;99.90;;;;;;5034113;28;20424;-72
2023/03/26 11:25:44;;;;;;;19.50;4.03;;;9.10;99.90;;;;;;5035029;28;20415;-72
2023/03/26 11:28:26;;;;;;;12.67;3.80;;;9.10;99.90;;;;;;5034403;28;20415;-72
2023/03/26 11:31:01;;;;;;;10.57;4.40;;;9.00;99.90;;;;;;5016058;28;20533;-72
2023/03/26 11:33:35;;;;;;;13.23;4.17;;;9.10;99.90;;;;;;5033682;28;20445;-72
2023/03/26 11:36:08;;;;;;;10.73;3.60;;;9.10;99.90;;;;;;5033629;28;20442;-72
2023/03/26 11:38:40;;;;;;;13.33;4.50;;;9.20;99.90;;;;;;5034208;28;20446;-72
2023/03/26 11:41:14;;;;;;;12.90;3.60;;;9.10;99.90;;;;;;5016070;28;20486;-72
2023/03/26 11:44:07;;;;;;;11.07;3.50;;;9.10;99.90;;;;;;5033584;28;20514;-72
2023/03/26 11:46:42;;;;;;;16.10;4.53;;;9.10;99.90;;;;;;5015713;28;20501;-72
2023/03/26 11:49:13;;;;;;;9.17;3.37;;;9.10;99.90;;;;;;5033664;28;20451;-72
2023/03/26 11:51:46;;;;;;;11.90;4.43;;;9.10;99.90;;;;;;5033629;28;20554;-72
2023/03/26 11:54:15;;;;;;;10.77;4.00;;;9.20;99.90;;;;;;5015612;28;20477;-72
2023/03/26 11:56:48;;;;;;;12.73;3.60;;;9.20;99.90;;;;;;5033323;28;20469;-72
2023/03/26 11:59:38;;;;;;;15.20;4.33;;;9.30;99.90;;;;;;5033341;28;20514;-72
2023/03/26 12:02:31;;;;;;;12.20;3.70;;;9.30;99.90;;;;;;5015568;28;20431;-72
2023/03/26 12:05:16;;;;;;;12.30;3.77;;;9.40;99.90;;;;;;5015607;28;20441;-72
2023/03/26 12:07:52;;;;;;;10.97;3.27;;;9.50;99.90;;;;;;5033513;28;20423;-72
2023/03/26 12:10:30;;;;;;;13.10;4.43;;;9.50;99.90;;;;;;5015499;28;20480;-72
2023/03/26 12:13:01;;;;;;;14.20;4.17;;;9.50;99.90;;;;;;5015542;28;20801;-72
2023/03/26 12:15:30;;;;;;;20.23;4.43;;;9.50;99.90;;;;;;5033064;28;20470;-72
2023/03/26 12:18:17;;;;;;;9.97;4.50;;;9.50;99.90;;;;;;5033199;28;20453;-72
2023/03/26 12:21:01;;;;;;;10.17;3.83;;;9.60;99.90;;;;;;5015611;28;20470;-72
2023/03/26 12:23:37;;;;;;;12.87;3.67;;;9.60;99.90;;;;;;5033726;28;20904;-73
2023/03/26 12:26:14;;;;;;;12.17;3.23;;;9.60;99.90;;;;;;5033351;28;20423;-73
2023/03/26 12:28:47;;;;;;;10.37;3.23;;;9.60;99.90;;;;;;5015341;28;20454;-73
2023/03/26 12:31:17;;;;;;;13.20;3.53;;;9.60;99.90;;;;;;5033194;28;20463;-73
2023/03/26 12:34:04;;;;;;;13.50;4.00;;;9.60;99.90;;;;;;5015175;28;20859;-72
2023/03/26 12:36:35;;;;;;;12.23;3.10;;;9.60;99.90;;;;;;5033181;28;20458;-73
2023/03/26 12:39:36;;;;;;;10.00;3.23;;;9.60;99.90;;;;;;5015203;28;20431;-72
2023/03/26 12:42:27;;;;;;;11.10;2.97;;;9.70;99.90;;;;;;5032874;28;20471;-73
2023/03/26 12:45:15;;;;;;;10.87;4.33;;;9.70;99.90;;;;;;5015141;28;20920;-73
2023/03/26 12:47:43;;;;;;;10.10;3.30;;;9.70;99.90;;;;;;5015155;28;20450;-73
2023/03/26 12:50:40;;;;;;;14.20;4.03;;;9.70;99.90;;;;;;5032828;28;21010;-73
2023/03/26 12:53:27;;;;;;;10.90;3.27;;;9.70;99.90;;;;;;5033067;28;20425;-72
2023/03/26 12:56:05;;;;;;;15.57;3.90;;;9.70;99.90;;;;;;5015088;28;20467;-72
2023/03/26 12:58:56;;;;;;;9.73;3.30;;;9.80;99.90;;;;;;5015117;28;20439;-73
2023/03/26 13:01:34;;;;;;;11.47;3.50;;;9.80;99.90;;;;;;5015302;28;20482;-73
2023/03/26 13:04:18;;;;;;;12.70;3.40;;;9.80;99.90;;;;;;5033140;28;20419;-73
2023/03/26 13:06:52;;;;;;;10.10;3.20;;;9.80;99.90;;;;;;5018180;28;20446;-73
2023/03/26 13:09:58;;;;;;;9.60;3.73;;;9.80;99.90;;;;;;5036704;28;20422;-73
2023/03/26 13:12:42;;;;;;;13.17;3.83;;;9.90;99.90;;;;;;4998031;28;20489;-73
2023/03/26 13:15:18;;;;;;;12.30;4.03;;;10.00;99.90;;;;;;5036517;28;20557;-73
2023/03/26 13:18:06;;;;;;;16.13;3.87;;;10.00;99.90;;;;;;5036858;28;20465;-73
2023/03/26 13:20:50;;;;;;;11.33;3.63;;;10.00;99.90;;;;;;5036153;28;20458;-73
2023/03/26 13:23:30;;;;;;;11.40;3.40;;;10.00;99.90;;;;;;5036134;28;20423;-73
2023/03/26 13:26:10;;;;;;;15.27;4.57;;;10.00;99.90;;;;;;5018566;28;20453;-73
2023/03/26 13:28:49;;;;;;;12.80;3.47;;;10.00;99.90;;;;;;5036101;28;20469;-73
2023/03/26 13:31:22;;;;;;;10.83;3.30;;;10.10;99.90;;;;;;5018208;28;20466;-73
2023/03/26 13:33:57;;;;;;;11.10;3.63;;;10.20;99.90;;;;;;5035942;28;20423;-73
2023/03/26 13:36:36;;;;;;;7.70;2.93;;;10.20;99.90;;;;;;5036101;28;20461;-73
2023/03/26 13:39:16;;;;;;;12.10;3.47;;;10.30;99.90;;;;;;5036624;28;20419;-74
2023/03/26 13:42:09;;;;;;;11.10;3.20;;;10.30;99.90;;;;;;5035896;28;20459;-73
2023/03/26 13:44:47;;;;;;;14.03;3.70;;;10.30;99.90;;;;;;5017912;28;20450;-73
2023/03/26 13:47:19;;;;;;;8.60;3.33;;;10.30;99.90;;;;;;5035672;28;20423;-73
2023/03/26 13:49:51;;;;;;;10.83;3.77;;;10.30;99.90;;;;;;5035698;28;20514;-74
2023/03/26 13:52:25;;;;;;;11.43;3.63;;;10.20;99.90;;;;;;5035566;28;20466;-73
2023/03/26 13:55:03;;;;;;;15.30;3.73;;;10.20;99.90;;;;;;5035535;28;20458;-73